OEECO EDFE-EDDE
Flight info
| Callsign | OEECO |
|---|---|
| Flight time | 0h 34m |
| Altitude | 21000 |
| Route | GEDEH DCT LARUB DCT ERSET T211 ROBEL ROBEL1R |
| Aircraft | PC12/L-SDFGRWY/S |
Departure
| Time | 2026-04-22 14:46 |
|---|---|
| Airport | Frankfurt-Egelsbach Airport (EDFE) |
Arrival
| Time | 2026-04-22 15:21 |
|---|---|
| Airport | Erfurt-Weimar Airport (EDDE) |
| Time | Latitude | Longitude | Altitude | Speed | Heading |
|---|---|---|---|---|---|
| 2026-04-22 14:31 | 49.96219 | 8.64283 | 385 ft | 0 kts | 87° |
| 2026-04-22 14:43 | 49.96216 | 8.64304 | 385 ft | 9 kts | 118° |
| 2026-04-22 14:44 | 49.96169 | 8.64228 | 387 ft | 18 kts | 269° |
| 2026-04-22 14:44 | 49.96160 | 8.64010 | 385 ft | 24 kts | 265° |
| 2026-04-22 14:44 | 49.96145 | 8.63730 | 378 ft | 22 kts | 266° |
| 2026-04-22 14:44 | 49.96136 | 8.63530 | 375 ft | 16 kts | 268° |
| 2026-04-22 14:45 | 49.96128 | 8.63347 | 371 ft | 24 kts | 264° |
| 2026-04-22 14:45 | 49.96088 | 8.63212 | 371 ft | 7 kts | 218° |
| 2026-04-22 14:45 | 49.96043 | 8.63195 | 370 ft | 5 kts | 140° |
| 2026-04-22 14:45 | 49.96039 | 8.63234 | 371 ft | 0 kts | 83° |
| 2026-04-22 14:46 | 49.96055 | 8.63577 | 373 ft | 66 kts | 85° |
| 2026-04-22 14:46 | 49.96100 | 8.64549 | 478 ft | 104 kts | 87° |
| 2026-04-22 14:46 | 49.96135 | 8.65652 | 993 ft | 103 kts | 79° |
| 2026-04-22 14:46 | 49.96217 | 8.66805 | 1514 ft | 116 kts | 78° |
| 2026-04-22 14:47 | 49.96405 | 8.68189 | 1804 ft | 147 kts | 71° |
| 2026-04-22 14:47 | 49.96863 | 8.69810 | 1972 ft | 179 kts | 62° |
| 2026-04-22 14:47 | 49.97490 | 8.71608 | 1972 ft | 197 kts | 62° |
| 2026-04-22 14:47 | 49.98110 | 8.73525 | 2124 ft | 199 kts | 63° |
| 2026-04-22 14:48 | 49.98828 | 8.75383 | 2067 ft | 203 kts | 54° |
| 2026-04-22 14:48 | 49.99843 | 8.76894 | 2117 ft | 202 kts | 38° |
| 2026-04-22 14:48 | 50.00989 | 8.78171 | 2170 ft | 204 kts | 36° |
| 2026-04-22 14:48 | 50.02185 | 8.79398 | 2196 ft | 205 kts | 30° |
| 2026-04-22 14:49 | 50.03501 | 8.80197 | 2198 ft | 202 kts | 18° |
| 2026-04-22 14:49 | 50.04803 | 8.80924 | 2173 ft | 200 kts | 26° |
| 2026-04-22 14:49 | 50.05985 | 8.82072 | 2184 ft | 202 kts | 38° |
| 2026-04-22 14:49 | 50.07079 | 8.83427 | 2187 ft | 200 kts | 40° |
| 2026-04-22 14:50 | 50.08165 | 8.84773 | 2187 ft | 199 kts | 38° |
| 2026-04-22 14:50 | 50.09263 | 8.86095 | 2198 ft | 200 kts | 38° |
| 2026-04-22 14:50 | 50.10367 | 8.87421 | 2189 ft | 200 kts | 38° |
| 2026-04-22 14:50 | 50.11472 | 8.88753 | 2202 ft | 200 kts | 38° |
| 2026-04-22 14:51 | 50.12570 | 8.90079 | 2210 ft | 200 kts | 38° |
| 2026-04-22 14:51 | 50.13682 | 8.91422 | 2199 ft | 204 kts | 39° |
| 2026-04-22 14:51 | 50.14793 | 8.92773 | 2206 ft | 203 kts | 39° |
| 2026-04-22 14:51 | 50.15909 | 8.94116 | 2204 ft | 202 kts | 38° |
| 2026-04-22 14:52 | 50.17001 | 8.95432 | 2287 ft | 198 kts | 39° |
| 2026-04-22 14:52 | 50.18079 | 8.96737 | 2535 ft | 195 kts | 39° |
| 2026-04-22 14:52 | 50.19150 | 8.98030 | 2793 ft | 195 kts | 39° |
| 2026-04-22 14:52 | 50.20218 | 8.99329 | 3011 ft | 196 kts | 39° |
| 2026-04-22 14:53 | 50.21317 | 9.00674 | 3020 ft | 203 kts | 38° |
| 2026-04-22 14:53 | 50.22434 | 9.02029 | 3019 ft | 202 kts | 38° |
| 2026-04-22 14:53 | 50.23547 | 9.03373 | 3020 ft | 202 kts | 39° |
| 2026-04-22 14:53 | 50.24655 | 9.04718 | 3023 ft | 201 kts | 38° |
| 2026-04-22 14:54 | 50.25396 | 9.05592 | 3016 ft | 204 kts | 37° |
| 2026-04-22 14:54 | 50.26893 | 9.07440 | 3028 ft | 207 kts | 39° |
| 2026-04-22 14:54 | 50.28023 | 9.08851 | 3033 ft | 209 kts | 39° |
| 2026-04-22 14:54 | 50.29182 | 9.10245 | 3018 ft | 210 kts | 38° |
| 2026-04-22 14:55 | 50.30344 | 9.11645 | 3001 ft | 212 kts | 38° |
| 2026-04-22 14:55 | 50.31109 | 9.12576 | 3090 ft | 207 kts | 38° |
| 2026-04-22 14:55 | 50.32229 | 9.13940 | 3346 ft | 201 kts | 38° |
| 2026-04-22 14:55 | 50.33329 | 9.15285 | 3599 ft | 200 kts | 38° |
| 2026-04-22 14:56 | 50.34432 | 9.16635 | 3862 ft | 201 kts | 39° |
| 2026-04-22 14:56 | 50.35545 | 9.17993 | 4106 ft | 203 kts | 39° |
| 2026-04-22 14:56 | 50.36651 | 9.19358 | 4450 ft | 199 kts | 39° |
| 2026-04-22 14:56 | 50.37749 | 9.20684 | 4854 ft | 200 kts | 39° |
| 2026-04-22 14:57 | 50.38846 | 9.22032 | 5233 ft | 199 kts | 40° |
| 2026-04-22 14:57 | 50.39936 | 9.23375 | 5619 ft | 200 kts | 40° |
| 2026-04-22 14:57 | 50.41038 | 9.24719 | 6012 ft | 202 kts | 40° |
| 2026-04-22 14:57 | 50.42158 | 9.26075 | 6403 ft | 204 kts | 40° |
| 2026-04-22 14:58 | 50.43290 | 9.27425 | 6791 ft | 205 kts | 40° |
| 2026-04-22 14:58 | 50.44422 | 9.28778 | 7154 ft | 205 kts | 40° |
| 2026-04-22 14:58 | 50.45557 | 9.30135 | 7530 ft | 206 kts | 40° |
| 2026-04-22 14:58 | 50.46692 | 9.31503 | 7906 ft | 206 kts | 40° |
| 2026-04-22 14:59 | 50.47838 | 9.32877 | 8285 ft | 208 kts | 39° |
| 2026-04-22 14:59 | 50.48975 | 9.34244 | 8662 ft | 209 kts | 39° |
| 2026-04-22 14:59 | 50.50145 | 9.35652 | 9051 ft | 210 kts | 39° |
| 2026-04-22 14:59 | 50.51306 | 9.37049 | 9447 ft | 211 kts | 39° |
| 2026-04-22 15:00 | 50.52458 | 9.38434 | 9840 ft | 211 kts | 39° |
| 2026-04-22 15:00 | 50.53628 | 9.39843 | 10227 ft | 213 kts | 39° |
| 2026-04-22 15:00 | 50.54818 | 9.41278 | 10514 ft | 215 kts | 39° |
| 2026-04-22 15:00 | 50.56002 | 9.42707 | 10883 ft | 214 kts | 39° |
| 2026-04-22 15:01 | 50.57181 | 9.44129 | 11254 ft | 214 kts | 39° |
| 2026-04-22 15:01 | 50.58363 | 9.45556 | 11630 ft | 213 kts | 38° |
| 2026-04-22 15:01 | 50.59538 | 9.46976 | 12012 ft | 212 kts | 39° |
| 2026-04-22 15:01 | 50.60709 | 9.48391 | 12397 ft | 212 kts | 39° |
| 2026-04-22 15:02 | 50.61866 | 9.49793 | 12781 ft | 212 kts | 38° |
| 2026-04-22 15:02 | 50.63040 | 9.51214 | 13171 ft | 212 kts | 38° |
| 2026-04-22 15:02 | 50.64210 | 9.52630 | 13574 ft | 212 kts | 38° |
| 2026-04-22 15:02 | 50.65380 | 9.54048 | 13977 ft | 212 kts | 38° |
| 2026-04-22 15:03 | 50.66553 | 9.55472 | 14365 ft | 213 kts | 38° |
| 2026-04-22 15:03 | 50.67732 | 9.56905 | 14726 ft | 214 kts | 38° |
| 2026-04-22 15:03 | 50.68912 | 9.58336 | 15096 ft | 214 kts | 38° |
| 2026-04-22 15:03 | 50.70103 | 9.59785 | 15333 ft | 221 kts | 38° |
| 2026-04-22 15:04 | 50.71349 | 9.61301 | 15340 ft | 231 kts | 38° |
| 2026-04-22 15:04 | 50.72618 | 9.62847 | 15348 ft | 235 kts | 38° |
| 2026-04-22 15:04 | 50.73922 | 9.64436 | 15348 ft | 237 kts | 38° |
| 2026-04-22 15:04 | 50.75234 | 9.66032 | 15347 ft | 239 kts | 38° |
| 2026-04-22 15:05 | 50.76550 | 9.67638 | 15346 ft | 239 kts | 38° |
| 2026-04-22 15:05 | 50.77866 | 9.69246 | 15344 ft | 239 kts | 38° |
| 2026-04-22 15:05 | 50.79178 | 9.70861 | 15345 ft | 239 kts | 40° |
| 2026-04-22 15:05 | 50.80362 | 9.72689 | 15342 ft | 238 kts | 46° |
| 2026-04-22 15:06 | 50.81533 | 9.74548 | 15344 ft | 238 kts | 45° |
| 2026-04-22 15:06 | 50.82709 | 9.76390 | 15343 ft | 238 kts | 45° |
| 2026-04-22 15:06 | 50.83883 | 9.78241 | 15344 ft | 239 kts | 45° |
| 2026-04-22 15:06 | 50.85055 | 9.80102 | 15344 ft | 238 kts | 45° |
| 2026-04-22 15:07 | 50.86227 | 9.81960 | 15347 ft | 239 kts | 45° |
| 2026-04-22 15:07 | 50.87398 | 9.83817 | 15346 ft | 238 kts | 45° |
| 2026-04-22 15:07 | 50.88568 | 9.85673 | 15348 ft | 238 kts | 45° |
| 2026-04-22 15:07 | 50.89742 | 9.87537 | 15346 ft | 239 kts | 45° |
| 2026-04-22 15:08 | 50.90913 | 9.89398 | 15347 ft | 239 kts | 45° |
| 2026-04-22 15:08 | 50.92089 | 9.91268 | 15268 ft | 241 kts | 45° |
| 2026-04-22 15:08 | 50.93289 | 9.93182 | 14983 ft | 247 kts | 46° |
| 2026-04-22 15:08 | 50.94226 | 9.95477 | 14638 ft | 251 kts | 64° |
| 2026-04-22 15:09 | 50.94722 | 9.98145 | 14305 ft | 254 kts | 79° |
| 2026-04-22 15:09 | 50.94727 | 10.00954 | 13956 ft | 257 kts | 94° |
| 2026-04-22 15:09 | 50.94401 | 10.03738 | 13615 ft | 257 kts | 97° |
| 2026-04-22 15:09 | 50.94076 | 10.06478 | 13278 ft | 255 kts | 97° |
| 2026-04-22 15:10 | 50.93761 | 10.09242 | 12938 ft | 254 kts | 97° |
| 2026-04-22 15:10 | 50.93444 | 10.11999 | 12597 ft | 253 kts | 97° |
| 2026-04-22 15:10 | 50.93126 | 10.14740 | 12273 ft | 252 kts | 97° |
| 2026-04-22 15:10 | 50.92808 | 10.17477 | 11944 ft | 252 kts | 97° |
| 2026-04-22 15:11 | 50.92490 | 10.20210 | 11599 ft | 252 kts | 97° |
| 2026-04-22 15:11 | 50.92171 | 10.22940 | 11276 ft | 252 kts | 97° |
| 2026-04-22 15:11 | 50.91852 | 10.25665 | 10949 ft | 251 kts | 97° |
| 2026-04-22 15:11 | 50.91533 | 10.28389 | 10615 ft | 251 kts | 97° |
| 2026-04-22 15:12 | 50.91214 | 10.31112 | 10288 ft | 251 kts | 97° |
| 2026-04-22 15:12 | 50.90894 | 10.33826 | 9936 ft | 250 kts | 98° |
| 2026-04-22 15:12 | 50.90575 | 10.36524 | 9603 ft | 248 kts | 98° |
| 2026-04-22 15:12 | 50.90263 | 10.39174 | 9280 ft | 247 kts | 98° |
| 2026-04-22 15:13 | 50.89965 | 10.41851 | 8942 ft | 246 kts | 94° |
| 2026-04-22 15:13 | 50.90201 | 10.44470 | 8565 ft | 241 kts | 62° |
| 2026-04-22 15:13 | 50.91365 | 10.46318 | 8205 ft | 239 kts | 32° |
| 2026-04-22 15:13 | 50.92823 | 10.47579 | 7897 ft | 238 kts | 30° |
| 2026-04-22 15:14 | 50.94207 | 10.49000 | 7571 ft | 236 kts | 38° |
| 2026-04-22 15:14 | 50.95403 | 10.50766 | 7347 ft | 232 kts | 46° |
| 2026-04-22 15:14 | 50.96494 | 10.52606 | 7134 ft | 224 kts | 46° |
| 2026-04-22 15:14 | 50.97578 | 10.54347 | 6517 ft | 222 kts | 45° |
| 2026-04-22 15:15 | 50.98590 | 10.55922 | 5866 ft | 196 kts | 45° |
| 2026-04-22 15:15 | 50.99556 | 10.57433 | 5220 ft | 194 kts | 45° |
| 2026-04-22 15:15 | 51.00342 | 10.59125 | 4605 ft | 189 kts | 64° |
| 2026-04-22 15:15 | 51.00648 | 10.61137 | 4343 ft | 186 kts | 85° |
| 2026-04-22 15:16 | 51.00566 | 10.63144 | 4287 ft | 182 kts | 94° |
| 2026-04-22 15:16 | 51.00418 | 10.65148 | 4151 ft | 181 kts | 94° |
| 2026-04-22 15:16 | 51.00259 | 10.67177 | 4026 ft | 187 kts | 94° |
| 2026-04-22 15:16 | 51.00099 | 10.69224 | 3995 ft | 185 kts | 94° |
| 2026-04-22 15:17 | 50.99940 | 10.71220 | 3929 ft | 186 kts | 93° |
| 2026-04-22 15:17 | 50.99779 | 10.73291 | 3679 ft | 191 kts | 95° |
| 2026-04-22 15:17 | 50.99609 | 10.75392 | 3441 ft | 192 kts | 94° |
| 2026-04-22 15:17 | 50.99445 | 10.77402 | 3162 ft | 175 kts | 94° |
| 2026-04-22 15:18 | 50.99301 | 10.79296 | 2933 ft | 172 kts | 95° |
| 2026-04-22 15:18 | 50.99149 | 10.81117 | 2713 ft | 151 kts | 93° |
| 2026-04-22 15:18 | 50.99022 | 10.82647 | 2511 ft | 140 kts | 94° |
| 2026-04-22 15:18 | 50.98900 | 10.84200 | 2330 ft | 142 kts | 95° |
| 2026-04-22 15:19 | 50.98788 | 10.85666 | 2123 ft | 123 kts | 94° |
| 2026-04-22 15:19 | 50.98690 | 10.86968 | 1946 ft | 113 kts | 91° |
| 2026-04-22 15:19 | 50.98604 | 10.88158 | 1787 ft | 108 kts | 91° |
| 2026-04-22 15:19 | 50.98502 | 10.89315 | 1644 ft | 103 kts | 92° |
| 2026-04-22 15:20 | 50.98440 | 10.90062 | 1566 ft | 100 kts | 92° |
| 2026-04-22 15:20 | 50.98325 | 10.91497 | 1391 ft | 98 kts | 94° |
| 2026-04-22 15:20 | 50.98231 | 10.92555 | 1270 ft | 95 kts | 91° |
| 2026-04-22 15:20 | 50.98155 | 10.93586 | 1137 ft | 94 kts | 93° |
| 2026-04-22 15:21 | 50.98076 | 10.94601 | 1046 ft | 88 kts | 94° |
| 2026-04-22 15:21 | 50.98023 | 10.95313 | 1041 ft | 19 kts | 96° |
| 2026-04-22 15:21 | 50.98000 | 10.95368 | 1041 ft | 15 kts | 150° |